createdAt,value
2018-08-12T00:01:02.603Z,660
2018-08-12T00:02:09.825Z,659
2018-08-12T00:03:17.049Z,659
2018-08-12T00:04:24.279Z,658
2018-08-12T00:05:31.500Z,658
2018-08-12T00:06:38.713Z,658
2018-08-12T00:07:45.941Z,658
2018-08-12T00:08:53.155Z,658
2018-08-12T00:10:00.107Z,658
2018-08-12T00:11:07.063Z,658
2018-08-12T00:12:14.281Z,658
2018-08-12T00:13:21.516Z,657
2018-08-12T00:14:28.737Z,658
2018-08-12T00:15:35.969Z,657
2018-08-12T00:16:43.195Z,657
2018-08-12T00:17:50.140Z,659
2018-08-12T00:18:57.361Z,658
2018-08-12T00:20:04.581Z,658
2018-08-12T00:21:11.796Z,659
2018-08-12T00:22:19.015Z,658
2018-08-12T00:23:25.954Z,658
2018-08-12T00:24:33.183Z,658
2018-08-12T00:25:40.406Z,658
2018-08-12T00:26:47.628Z,658
2018-08-12T00:27:54.870Z,657
2018-08-12T00:29:02.093Z,657
2018-08-12T00:30:09.058Z,658
2018-08-12T00:31:16.290Z,657
2018-08-12T00:32:23.518Z,657
2018-08-12T00:33:30.729Z,659
2018-08-12T00:34:37.971Z,658
2018-08-12T00:35:45.193Z,657
2018-08-12T00:36:52.415Z,657
2018-08-12T00:37:59.637Z,657
2018-08-12T00:39:06.593Z,656
2018-08-12T00:40:13.815Z,656
2018-08-12T00:41:21.044Z,656
2018-08-12T00:42:28.258Z,657
2018-08-12T00:43:35.484Z,657
2018-08-12T00:44:42.423Z,657
2018-08-12T00:45:49.393Z,656
2018-08-12T00:46:56.626Z,656
2018-08-12T00:48:03.846Z,655
2018-08-12T00:49:11.071Z,656
2018-08-12T00:50:18.312Z,657
2018-08-12T00:51:25.525Z,657
2018-08-12T00:52:32.755Z,657
2018-08-12T00:53:39.977Z,657
2018-08-12T00:54:47.224Z,656
2018-08-12T00:55:54.168Z,655
2018-08-12T00:57:01.388Z,655
2018-08-12T00:58:08.326Z,655
2018-08-12T00:59:15.563Z,655
2018-08-12T01:00:22.785Z,656
2018-08-12T01:01:30.000Z,656
2018-08-12T01:02:36.945Z,656
2018-08-12T01:03:44.183Z,656
2018-08-12T01:04:51.404Z,656
2018-08-12T01:05:58.613Z,656
2018-08-12T01:07:05.831Z,656
2018-08-12T01:08:13.068Z,655
2018-08-12T01:09:20.282Z,656
2018-08-12T01:10:27.505Z,656
2018-08-12T01:11:34.730Z,656
2018-08-12T01:12:41.959Z,654
2018-08-12T01:13:48.922Z,655
2018-08-12T01:14:56.161Z,655
2018-08-12T01:16:03.098Z,655
2018-08-12T01:17:10.064Z,655
2018-08-12T01:18:17.288Z,655
2018-08-12T01:19:24.510Z,656
2018-08-12T01:20:31.737Z,654
2018-08-12T01:21:38.685Z,655
2018-08-12T01:22:45.910Z,655
2018-08-12T01:23:53.127Z,655
2018-08-12T01:25:00.352Z,655
2018-08-12T01:26:07.572Z,655
2018-08-12T01:27:14.788Z,655
2018-08-12T01:28:22.011Z,654
2018-08-12T01:29:29.225Z,655
2018-08-12T01:30:36.182Z,655
2018-08-12T01:31:43.402Z,655
2018-08-12T01:32:50.343Z,655
2018-08-12T01:33:57.573Z,655
2018-08-12T01:35:04.803Z,655
2018-08-12T01:36:11.483Z,655
2018-08-12T01:37:18.718Z,654
2018-08-12T01:38:25.931Z,655
2018-08-12T01:39:33.157Z,655
2018-08-12T01:40:40.379Z,655
2018-08-12T01:41:47.605Z,654
2018-08-12T01:42:54.822Z,655
2018-08-12T01:44:02.039Z,656
2018-08-12T01:45:09.256Z,655
2018-08-12T01:46:16.472Z,656
2018-08-12T01:47:23.688Z,654
2018-08-12T01:48:30.635Z,655
2018-08-12T01:49:37.872Z,656
2018-08-12T01:50:45.103Z,655
2018-08-12T01:51:52.331Z,655
2018-08-12T01:52:59.564Z,653
2018-08-12T01:54:06.783Z,656
2018-08-12T01:55:13.732Z,656
2018-08-12T01:56:20.950Z,654
2018-08-12T01:57:27.885Z,655
2018-08-12T01:58:35.107Z,655
2018-08-12T01:59:42.329Z,654
2018-08-12T02:00:49.566Z,653
2018-08-12T02:01:56.784Z,653
2018-08-12T02:03:04.006Z,653
2018-08-12T02:04:11.232Z,653
2018-08-12T02:05:18.456Z,653
2018-08-12T02:06:25.381Z,655
2018-08-12T02:07:32.601Z,654
2018-08-12T02:08:39.827Z,654
2018-08-12T02:09:47.053Z,653
2018-08-12T02:10:54.264Z,655
2018-08-12T02:12:01.488Z,654
2018-08-12T02:13:08.702Z,654
2018-08-12T02:14:15.932Z,654
2018-08-12T02:15:23.164Z,654
2018-08-12T02:16:30.385Z,655
2018-08-12T02:17:37.327Z,654
2018-08-12T02:18:44.542Z,655
2018-08-12T02:19:51.780Z,653
2018-08-12T02:20:58.727Z,653
2018-08-12T02:22:05.947Z,655
2018-08-12T02:23:13.160Z,654
2018-08-12T02:24:20.383Z,655
2018-08-12T02:25:27.627Z,654
2018-08-12T02:26:34.850Z,653
2018-08-12T02:27:42.060Z,654
2018-08-12T02:28:49.290Z,654
2018-08-12T02:29:56.264Z,654
2018-08-12T02:31:03.478Z,654
2018-08-12T02:32:10.694Z,654
2018-08-12T02:33:17.905Z,654
2018-08-12T02:34:25.137Z,654
2018-08-12T02:35:32.355Z,653
2018-08-12T02:36:39.302Z,655
2018-08-12T02:37:46.563Z,655
2018-08-12T02:38:53.803Z,654
2018-08-12T02:40:01.024Z,653
2018-08-12T02:41:08.259Z,654
2018-08-12T02:42:15.475Z,655
2018-08-12T02:43:22.696Z,654
2018-08-12T02:44:29.927Z,653
2018-08-12T02:45:37.140Z,655
2018-08-12T02:46:44.372Z,654
2018-08-12T02:47:51.595Z,654
2018-08-12T02:48:58.814Z,654
2018-08-12T02:50:06.036Z,654
2018-08-12T02:51:13.277Z,655
2018-08-12T02:52:20.494Z,655
2018-08-12T02:53:27.732Z,655
2018-08-12T02:54:34.958Z,654
2018-08-12T02:55:41.914Z,654
2018-08-12T02:56:49.139Z,653
2018-08-12T02:57:56.362Z,653
2018-08-12T02:59:03.590Z,653
2018-08-12T03:00:10.561Z,654
2018-08-12T03:01:17.796Z,653
2018-08-12T03:02:25.036Z,652
2018-08-12T03:03:32.278Z,654
2018-08-12T03:04:39.503Z,652
2018-08-12T03:05:46.713Z,654
2018-08-12T03:06:53.647Z,653
2018-08-12T03:08:00.871Z,652
2018-08-12T03:09:08.114Z,652
2018-08-12T03:10:15.040Z,653
2018-08-12T03:11:22.261Z,653
2018-08-12T03:12:29.474Z,653
2018-08-12T03:13:36.691Z,652
2018-08-12T03:14:43.636Z,653
2018-08-12T03:15:50.850Z,651
2018-08-12T03:16:58.066Z,652
2018-08-12T03:18:05.286Z,653
2018-08-12T03:19:12.225Z,652
2018-08-12T03:20:19.443Z,653
2018-08-12T03:21:26.670Z,653
2018-08-12T03:22:34.183Z,653
2018-08-12T03:23:41.479Z,654
2018-08-12T03:24:48.705Z,652
2018-08-12T03:25:55.927Z,654
2018-08-12T03:27:03.151Z,653
2018-08-12T03:28:10.373Z,653
2018-08-12T03:29:17.597Z,652
2018-08-12T03:30:25.309Z,653
2018-08-12T03:31:32.739Z,653
2018-08-12T03:32:39.675Z,653
2018-08-12T03:33:46.892Z,653
2018-08-12T03:34:54.104Z,652
2018-08-12T03:36:01.323Z,653
2018-08-12T03:37:08.820Z,653
2018-08-12T03:38:16.045Z,652
2018-08-12T03:39:23.289Z,652
2018-08-12T03:40:30.504Z,652
2018-08-12T03:41:37.740Z,652
2018-08-12T03:42:44.952Z,652
2018-08-12T03:43:52.168Z,652
2018-08-12T03:44:59.106Z,652
2018-08-12T03:46:06.052Z,651
2018-08-12T03:47:13.299Z,651
2018-08-12T03:48:20.511Z,651
2018-08-12T03:49:27.722Z,651
2018-08-12T03:50:34.956Z,650
2018-08-12T03:51:41.899Z,650
2018-08-12T03:52:49.128Z,652
2018-08-12T03:53:56.071Z,651
2018-08-12T03:55:03.301Z,651
2018-08-12T03:56:10.522Z,650
2018-08-12T03:57:17.762Z,650
2018-08-12T03:58:24.732Z,651
2018-08-12T03:59:31.982Z,649
2018-08-12T04:00:39.213Z,649
2018-08-12T04:01:46.436Z,649
2018-08-12T04:02:53.660Z,649
2018-08-12T04:04:00.886Z,649
2018-08-12T04:05:08.105Z,648
2018-08-12T04:06:15.326Z,650
2018-08-12T04:07:22.557Z,650
2018-08-12T04:08:29.792Z,649
2018-08-12T04:09:37.025Z,649
2018-08-12T04:10:44.240Z,648
2018-08-12T04:11:51.200Z,649
2018-08-12T04:12:58.434Z,649
2018-08-12T04:14:05.695Z,650
2018-08-12T04:15:12.937Z,649
2018-08-12T04:16:20.168Z,649
2018-08-12T04:17:27.403Z,649
2018-08-12T04:18:34.620Z,649
2018-08-12T04:19:42.073Z,649
2018-08-12T04:20:49.008Z,649
2018-08-12T04:21:56.233Z,648
2018-08-12T04:23:03.466Z,649
2018-08-12T04:24:10.705Z,648
2018-08-12T04:25:17.930Z,649
2018-08-12T04:26:25.164Z,650
2018-08-12T04:27:32.412Z,648
2018-08-12T04:28:39.641Z,648
2018-08-12T04:29:46.882Z,650
2018-08-12T04:30:54.120Z,650
2018-08-12T04:32:01.059Z,649
2018-08-12T04:33:09.514Z,649
2018-08-12T04:34:16.474Z,649
2018-08-12T04:35:23.463Z,649
2018-08-12T04:36:30.680Z,649
2018-08-12T04:37:37.923Z,649
2018-08-12T04:38:45.148Z,648
2018-08-12T04:39:52.094Z,648
2018-08-12T04:40:59.325Z,649
2018-08-12T04:42:06.547Z,649
2018-08-12T04:43:13.764Z,651
2018-08-12T04:44:20.715Z,650
2018-08-12T04:45:27.962Z,649
2018-08-12T04:46:35.196Z,649
2018-08-12T04:47:42.441Z,649
2018-08-12T04:48:49.661Z,650
2018-08-12T04:49:56.892Z,648
2018-08-12T04:51:04.108Z,648
2018-08-12T04:52:11.327Z,648
2018-08-12T04:53:18.306Z,648
2018-08-12T04:54:25.248Z,648
2018-08-12T04:55:32.687Z,647
2018-08-12T04:56:39.927Z,647
2018-08-12T04:57:47.164Z,646
2018-08-12T04:58:54.383Z,648
2018-08-12T05:00:01.605Z,648
2018-08-12T05:01:08.834Z,647
2018-08-12T05:02:16.080Z,645
2018-08-12T05:03:23.310Z,646
2018-08-12T05:04:30.547Z,646
2018-08-12T05:05:37.494Z,647
2018-08-12T05:06:44.176Z,646
2018-08-12T05:07:51.396Z,645
2018-08-12T05:08:58.377Z,646
2018-08-12T05:10:05.314Z,645
2018-08-12T05:11:12.557Z,645
2018-08-12T05:12:19.786Z,644
2018-08-12T05:13:27.009Z,645
2018-08-12T05:14:34.242Z,643
2018-08-12T05:15:41.459Z,646
2018-08-12T05:16:48.682Z,644
2018-08-12T05:17:55.611Z,644
2018-08-12T05:19:02.824Z,643
2018-08-12T05:20:10.054Z,643
2018-08-12T05:21:17.270Z,642
2018-08-12T05:22:24.495Z,644
2018-08-12T05:23:31.725Z,642
2018-08-12T05:24:38.950Z,643
2018-08-12T05:25:46.172Z,642
2018-08-12T05:26:53.391Z,641
2018-08-12T05:28:00.621Z,642
2018-08-12T05:29:07.861Z,642
2018-08-12T05:30:15.093Z,642
2018-08-12T05:31:22.329Z,641
2018-08-12T05:32:29.278Z,642
2018-08-12T05:33:36.238Z,642
2018-08-12T05:34:43.467Z,643
2018-08-12T05:35:50.697Z,642
2018-08-12T05:36:57.925Z,642
2018-08-12T05:38:05.154Z,642
2018-08-12T05:39:12.368Z,642
2018-08-12T05:40:19.601Z,643
2018-08-12T05:41:26.552Z,642
2018-08-12T05:42:33.772Z,644
2018-08-12T05:43:41.001Z,643
2018-08-12T05:44:48.239Z,643
2018-08-12T05:45:55.203Z,643
2018-08-12T05:47:02.443Z,642
2018-08-12T05:48:09.106Z,643
2018-08-12T05:49:16.072Z,643
2018-08-12T05:50:23.292Z,644
2018-08-12T05:51:30.716Z,644
2018-08-12T05:52:38.184Z,643
2018-08-12T22:00:07.100Z,688
2018-08-12T22:01:14.062Z,689
2018-08-12T22:02:21.290Z,688
2018-08-12T22:03:28.659Z,689
2018-08-12T22:04:35.772Z,689
2018-08-12T22:05:42.991Z,689
2018-08-12T22:06:50.223Z,688
2018-08-12T22:07:57.469Z,689
2018-08-12T22:09:04.699Z,690
2018-08-12T22:10:11.927Z,689
2018-08-12T22:11:19.184Z,690
2018-08-12T22:12:26.419Z,688
2018-08-12T22:13:33.646Z,688
2018-08-12T22:14:40.872Z,689
2018-08-12T22:15:48.099Z,689
2018-08-12T22:16:55.322Z,688
2018-08-12T22:18:02.270Z,689
2018-08-12T22:19:09.499Z,688
2018-08-12T22:20:16.724Z,690
2018-08-12T22:21:23.960Z,690
2018-08-12T22:22:31.194Z,689
2018-08-12T22:23:38.433Z,688
2018-08-12T22:24:45.653Z,690
2018-08-12T22:25:52.888Z,691
2018-08-12T22:26:59.843Z,690
2018-08-12T22:28:07.075Z,690
2018-08-12T22:29:14.300Z,690
2018-08-12T22:30:21.520Z,691
2018-08-12T22:31:28.743Z,691
2018-08-12T22:32:35.960Z,691
2018-08-12T22:33:42.644Z,690
2018-08-12T22:34:49.867Z,691
2018-08-12T22:35:57.138Z,690
2018-08-12T22:37:04.358Z,691
2018-08-12T22:38:11.585Z,691
2018-08-12T22:39:18.533Z,690
2018-08-12T22:40:25.749Z,690
2018-08-12T22:41:32.981Z,690
2018-08-12T22:42:40.214Z,690
2018-08-12T22:43:47.175Z,690
2018-08-12T22:44:54.403Z,689
2018-08-12T22:46:01.376Z,692
2018-08-12T22:47:08.579Z,691
2018-08-12T22:48:15.803Z,690
2018-08-12T22:49:23.054Z,690
2018-08-12T22:50:30.270Z,690
2018-08-12T22:51:37.501Z,691
2018-08-12T22:52:44.724Z,691
2018-08-12T22:53:51.948Z,691
2018-08-12T22:54:59.182Z,689
2018-08-12T22:56:06.411Z,691
2018-08-12T22:57:13.638Z,690
2018-08-12T22:58:20.886Z,691
2018-08-12T22:59:28.107Z,692
2018-08-12T23:00:35.341Z,690
2018-08-12T23:01:42.564Z,690
2018-08-12T23:02:49.837Z,691
2018-08-12T23:03:57.061Z,690
2018-08-12T23:05:04.285Z,689
2018-08-12T23:06:11.529Z,690
2018-08-12T23:07:18.753Z,690
2018-08-12T23:08:25.977Z,690
2018-08-12T23:09:33.197Z,690
2018-08-12T23:10:40.438Z,690
2018-08-12T23:11:47.686Z,689
2018-08-12T23:12:54.931Z,689
2018-08-12T23:14:02.151Z,691
2018-08-12T23:15:09.618Z,691
2018-08-12T23:16:16.564Z,691
2018-08-12T23:17:23.786Z,692
2018-08-12T23:18:30.737Z,691
2018-08-12T23:19:37.956Z,691
2018-08-12T23:20:45.190Z,692
2018-08-12T23:21:52.422Z,691
2018-08-12T23:22:59.645Z,690
2018-08-12T23:24:06.864Z,691
2018-08-12T23:25:14.084Z,691
2018-08-12T23:26:21.322Z,691
2018-08-12T23:27:28.540Z,690
2018-08-12T23:28:35.760Z,691
2018-08-12T23:29:42.987Z,691
2018-08-12T23:30:49.949Z,692
2018-08-12T23:31:56.931Z,692
2018-08-12T23:33:04.147Z,692
2018-08-12T23:34:11.368Z,692
2018-08-12T23:35:18.591Z,692
2018-08-12T23:36:25.814Z,692
2018-08-12T23:37:33.049Z,692
2018-08-12T23:38:40.266Z,692
2018-08-12T23:39:47.495Z,692
2018-08-12T23:40:54.712Z,691
2018-08-12T23:42:01.653Z,691
2018-08-12T23:43:08.602Z,690
2018-08-12T23:44:15.827Z,690
2018-08-12T23:45:22.769Z,691
2018-08-12T23:46:29.989Z,691
2018-08-12T23:47:37.211Z,691
2018-08-12T23:48:44.435Z,691
2018-08-12T23:49:51.380Z,691
2018-08-12T23:50:58.624Z,691
2018-08-12T23:52:05.850Z,691
2018-08-12T23:53:13.079Z,691
2018-08-12T23:54:20.292Z,692
2018-08-12T23:55:27.518Z,691
2018-08-12T23:56:34.741Z,691
2018-08-12T23:57:41.980Z,691
2018-08-12T23:58:49.194Z,691
2018-08-12T23:59:56.116Z,691
